Agassiz, Canada
Current Conditions -  °F | °C
As of 5:00 PM on Tuesday 25 Nov 2014 (Local Time) from CYHE Reporting Station
Light Rain Light Rain  
Wind Chill: 37°   Ceiling: 2200
Heat Index: 41°   Visibility: 9mi
Dew Point: 39°   Wind: 6mph
Humidity: 93%   Direction: 80°E
Pressure: 30.23"   Gusts: NA
Location:  49.24°N, 121.76°W
Report Text: CYHE 260100Z AUTO 08005KT 020V110 9SM -RA OVC022 05/04 A3023 RMK PCPN 1.8MM PAST HR SLP239
Loading
Personal Weather Stations






























Interactive Weather Map New forecast layout! Learn more

10-Day Weather Forecast

Advertisements
Track Severe Weather on mobile